Time;durP1;ratioP1;P1;durP2;ratioP2;P2;SDS_P1;SDS_P2;PMS_P1;PMS_P2;Temp;Humidity;BMP_temperature;BMP_pressure;BME280_temperature;BME280_humidity;BME280_pressure;Samples;Min_cycle;Max_cycle;Signal;HPM_P1;HPM_P2
2022/11/09 00:00:09;;;;;;;6.97;6.33;;;13.50;99.90;;;;;;10408752;28;20587;-82
2022/11/09 00:05:11;;;;;;;6.50;5.67;;;13.50;99.90;;;;;;10410364;28;20232;-83
2022/11/09 00:10:15;;;;;;;6.20;5.70;;;13.60;99.90;;;;;;10426137;28;20222;-84
2022/11/09 00:15:17;;;;;;;5.40;4.93;;;13.60;99.90;;;;;;10408537;28;20197;-82
2022/11/09 00:20:20;;;;;;;6.13;5.20;;;13.60;99.90;;;;;;10429218;28;20225;-83
2022/11/09 00:25:23;;;;;;;6.93;6.33;;;13.60;99.90;;;;;;10412866;28;20197;-83
2022/11/09 00:30:26;;;;;;;5.80;5.30;;;13.60;99.90;;;;;;10431015;28;20217;-82
2022/11/09 00:35:28;;;;;;;6.00;5.50;;;13.60;99.90;;;;;;10415428;28;20700;-84
2022/11/09 00:40:32;;;;;;;6.50;5.90;;;13.60;99.90;;;;;;10464429;28;20708;-83
2022/11/09 00:45:34;;;;;;;6.10;5.50;;;13.60;99.90;;;;;;10413914;28;20209;-83
2022/11/09 00:50:36;;;;;;;6.50;5.10;;;13.60;99.90;;;;;;10410590;28;20221;-83
2022/11/09 00:55:40;;;;;;;5.77;5.33;;;13.60;99.90;;;;;;10428064;28;20705;-83
2022/11/09 01:00:42;;;;;;;4.97;4.67;;;13.60;99.90;;;;;;10408845;28;20213;-83
2022/11/09 01:05:44;;;;;;;6.03;5.40;;;13.60;99.90;;;;;;10436971;28;20190;-82
2022/11/09 01:10:48;;;;;;;6.40;5.73;;;13.60;99.90;;;;;;10421167;28;20239;-81
2022/11/09 01:15:53;;;;;;;7.30;6.17;;;13.60;99.90;;;;;;10447313;28;20556;-81
2022/11/09 01:20:55;;;;;;;6.47;5.70;;;13.60;99.90;;;;;;10432411;23;20232;-80
2022/11/09 01:26:03;;;;;;;5.50;4.70;;;13.60;99.90;;;;;;10464525;28;20197;-80
2022/11/09 01:31:07;;;;;;;5.30;4.80;;;13.60;99.90;;;;;;10445873;28;20213;-81
2022/11/09 01:36:11;;;;;;;5.30;4.80;;;13.60;99.90;;;;;;10445032;28;20213;-81
2022/11/09 01:41:17;;;;;;;5.27;4.87;;;13.60;99.90;;;;;;10446199;28;20525;-81
2022/11/09 01:46:24;;;;;;;5.50;5.10;;;13.60;99.90;;;;;;10428415;28;20201;-81
2022/11/09 01:51:31;;;;;;;4.23;3.90;;;13.60;99.90;;;;;;10465109;28;20785;-80
2022/11/09 01:56:37;;;;;;;4.70;4.40;;;13.60;99.90;;;;;;10447403;28;20231;-80
2022/11/09 02:01:41;;;;;;;3.93;3.73;;;13.60;99.90;;;;;;10462427;28;20255;-80
2022/11/09 02:06:45;;;;;;;4.00;3.70;;;13.60;99.90;;;;;;10447623;28;20240;-80
2022/11/09 02:11:49;;;;;;;4.57;4.27;;;13.70;99.90;;;;;;10454792;28;20213;-80
2022/11/09 02:16:51;;;;;;;4.73;4.33;;;13.70;99.90;;;;;;10443043;28;20233;-80
2022/11/09 02:21:55;;;;;;;4.90;4.50;;;13.70;99.90;;;;;;10412095;28;20198;-79
2022/11/09 02:27:00;;;;;;;4.20;3.90;;;13.70;99.90;;;;;;10399602;28;20217;-79
2022/11/09 02:32:08;;;;;;;4.20;3.90;;;13.80;99.90;;;;;;10447702;28;20704;-79
2022/11/09 02:37:13;;;;;;;4.00;3.70;;;13.80;99.90;;;;;;10428704;28;20221;-79
2022/11/09 02:42:16;;;;;;;5.57;5.00;;;13.80;99.90;;;;;;10443093;28;20383;-81
2022/11/09 02:47:18;;;;;;;6.50;6.00;;;13.90;99.90;;;;;;10441736;28;20231;-80
2022/11/09 02:52:24;;;;;;;6.23;5.73;;;14.00;99.90;;;;;;10442059;28;20216;-79
2022/11/09 02:57:28;;;;;;;6.00;5.57;;;14.10;99.90;;;;;;10425286;28;20217;-80
2022/11/09 03:02:31;;;;;;;6.00;5.60;;;14.10;99.90;;;;;;10442416;28;20555;-79
2022/11/09 03:07:34;;;;;;;6.77;5.60;;;14.10;99.90;;;;;;10445217;28;20217;-79
2022/11/09 03:12:36;;;;;;;5.90;5.40;;;14.10;99.90;;;;;;10464256;28;20300;-79
2022/11/09 03:17:42;;;;;;;9.50;7.00;;;14.10;99.90;;;;;;10428246;28;20221;-79
2022/11/09 03:22:46;;;;;;;6.00;5.60;;;14.00;99.90;;;;;;10443825;28;20244;-79
2022/11/09 03:27:48;;;;;;;6.20;5.70;;;14.00;99.90;;;;;;10462824;28;20587;-79
2022/11/09 03:32:50;;;;;;;6.93;6.43;;;13.80;99.90;;;;;;10444152;28;20311;-79
2022/11/09 03:37:54;;;;;;;6.23;5.73;;;13.80;99.90;;;;;;10444552;28;20316;-79
2022/11/09 03:42:57;;;;;;;7.30;6.60;;;13.70;99.90;;;;;;10447923;28;20194;-79
2022/11/09 03:48:00;;;;;;;7.90;7.27;;;13.60;99.90;;;;;;10446955;28;20213;-79
2022/11/09 03:53:03;;;;;;;8.07;7.50;;;13.50;99.90;;;;;;10461228;28;20304;-79
2022/11/09 03:58:06;;;;;;;9.10;8.13;;;13.50;99.90;;;;;;10443741;28;20658;-79
2022/11/09 04:03:08;;;;;;;9.20;8.50;;;13.40;99.90;;;;;;10435846;28;20231;-79
2022/11/09 04:08:12;;;;;;;9.90;9.20;;;13.40;99.90;;;;;;10443447;28;20235;-79
2022/11/09 04:13:14;;;;;;;9.97;9.20;;;13.30;99.90;;;;;;10443246;28;20198;-79
2022/11/09 04:18:17;;;;;;;11.83;10.83;;;13.30;99.90;;;;;;10443219;28;20662;-79
2022/11/09 04:23:20;;;;;;;11.73;10.93;;;13.20;99.90;;;;;;10446748;28;20215;-79
2022/11/09 04:28:22;;;;;;;12.00;10.93;;;13.20;99.90;;;;;;10461733;28;20705;-79
2022/11/09 04:33:24;;;;;;;14.90;14.00;;;13.20;99.90;;;;;;10458120;28;20327;-79
2022/11/09 04:38:28;;;;;;;15.10;13.83;;;13.20;99.90;;;;;;10442160;28;20216;-79
2022/11/09 04:43:30;;;;;;;15.30;14.37;;;13.20;99.90;;;;;;10458715;28;20200;-79
2022/11/09 04:48:32;;;;;;;18.47;16.90;;;13.20;99.90;;;;;;10459912;28;20217;-79
2022/11/09 04:53:36;;;;;;;15.33;14.33;;;13.20;99.90;;;;;;10460345;28;20201;-79
2022/11/09 04:58:38;;;;;;;17.73;16.57;;;13.10;99.90;;;;;;10459952;28;20213;-79
2022/11/09 05:03:41;;;;;;;17.63;16.53;;;13.10;99.90;;;;;;10459078;28;20674;-79
2022/11/09 05:08:45;;;;;;;20.57;19.07;;;13.00;99.90;;;;;;10439207;28;20225;-79
2022/11/09 05:13:47;;;;;;;18.40;17.30;;;12.90;99.90;;;;;;10458025;28;20201;-79
2022/11/09 05:18:51;;;;;;;18.13;16.83;;;12.90;99.90;;;;;;10438548;28;20320;-79
2022/11/09 05:24:01;;;;;;;23.13;21.50;;;12.90;99.90;;;;;;10455997;28;20209;-79
2022/11/09 05:29:06;;;;;;;20.47;19.00;;;12.90;99.90;;;;;;10458181;28;20212;-79
2022/11/09 05:34:12;;;;;;;20.53;19.13;;;12.90;99.90;;;;;;10437722;28;20601;-79
2022/11/09 05:39:16;;;;;;;17.37;16.37;;;12.90;99.90;;;;;;10437961;28;20217;-79
2022/11/09 05:44:18;;;;;;;18.37;17.07;;;12.90;99.90;;;;;;10435786;28;20232;-79
2022/11/09 05:49:20;;;;;;;19.83;18.43;;;12.90;99.90;;;;;;10436298;28;20216;-79
2022/11/09 05:54:23;;;;;;;25.70;23.80;;;12.90;99.90;;;;;;10428353;28;20675;-79
2022/11/09 05:59:26;;;;;;;23.03;21.43;;;12.90;99.90;;;;;;10440832;28;20221;-79
2022/11/09 06:04:28;;;;;;;21.70;20.33;;;12.90;99.90;;;;;;10460337;28;20201;-79
2022/11/09 06:09:31;;;;;;;22.00;20.30;;;12.90;99.90;;;;;;10461918;28;20245;-80
2022/11/09 06:14:33;;;;;;;22.10;20.40;;;12.80;99.90;;;;;;10449593;28;20193;-79
2022/11/09 06:19:35;;;;;;;17.87;16.63;;;12.80;99.90;;;;;;10462926;28;20231;-80
2022/11/09 06:24:38;;;;;;;25.83;23.73;;;12.80;99.90;;;;;;10461226;28;20213;-78
2022/11/09 06:29:40;;;;;;;23.37;21.90;;;12.90;99.90;;;;;;10513363;22;20224;-79
2022/11/09 06:34:43;;;;;;;23.93;22.10;;;12.90;99.90;;;;;;10488808;28;20215;-80
2022/11/09 06:39:47;;;;;;;23.63;21.77;;;12.90;99.90;;;;;;10482969;28;20215;-79
2022/11/09 06:44:49;;;;;;;24.00;22.50;;;12.90;99.90;;;;;;10482518;28;20196;-79
2022/11/09 06:49:51;;;;;;;19.50;17.80;;;13.00;99.90;;;;;;10500929;28;20258;-79
2022/11/09 06:54:54;;;;;;;21.70;20.20;;;13.00;99.90;;;;;;10483029;28;20664;-79
2022/11/09 06:59:59;;;;;;;17.13;15.93;;;13.00;99.90;;;;;;10467890;28;20240;-79
2022/11/09 07:05:01;;;;;;;23.23;21.63;;;13.10;99.90;;;;;;10484887;28;20184;-79
2022/11/09 07:10:05;;;;;;;16.57;15.37;;;13.10;99.90;;;;;;10498973;28;20215;-79
2022/11/09 07:15:08;;;;;;;21.30;20.00;;;13.10;99.90;;;;;;10499718;28;20708;-79
2022/11/09 07:20:13;;;;;;;19.80;18.17;;;13.10;99.90;;;;;;10499817;28;20220;-79
2022/11/09 07:25:18;;;;;;;22.80;21.17;;;13.20;99.90;;;;;;10479835;28;20190;-79
2022/11/09 07:30:20;;;;;;;22.13;20.47;;;13.20;99.90;;;;;;10473141;28;20660;-79
2022/11/09 07:35:22;;;;;;;20.00;18.70;;;13.20;99.90;;;;;;10442487;28;20220;-79
2022/11/09 07:40:25;;;;;;;25.70;23.90;;;13.10;99.90;;;;;;10498825;28;20274;-79
2022/11/09 07:45:27;;;;;;;24.23;22.40;;;13.10;99.90;;;;;;10496551;28;20189;-79
2022/11/09 07:50:31;;;;;;;24.17;22.17;;;13.10;99.90;;;;;;10461451;28;20251;-79
2022/11/09 07:55:35;;;;;;;24.60;22.70;;;13.10;99.90;;;;;;10480547;28;20250;-79
2022/11/09 08:00:39;;;;;;;23.73;22.03;;;13.10;99.90;;;;;;10461072;28;20259;-79
2022/11/09 08:05:41;;;;;;;21.10;19.67;;;13.10;99.90;;;;;;10501526;28;20235;-79
2022/11/09 08:10:50;;;;;;;28.67;26.53;;;13.10;99.90;;;;;;10505214;28;20220;-79
2022/11/09 08:15:52;;;;;;;22.47;20.67;;;13.10;99.90;;;;;;10480607;28;20276;-79
2022/11/09 08:20:54;;;;;;;25.00;23.20;;;13.10;99.90;;;;;;10499369;28;20526;-79
2022/11/09 08:26:01;;;;;;;25.57;23.87;;;13.20;99.90;;;;;;10499398;28;20216;-80
2022/11/09 08:31:06;;;;;;;22.97;21.40;;;13.20;99.90;;;;;;10442150;28;20232;-79
2022/11/09 08:36:10;;;;;;;15.57;14.37;;;13.30;99.90;;;;;;10508361;28;20254;-79
2022/11/09 08:41:14;;;;;;;20.37;19.07;;;13.30;99.90;;;;;;10479773;28;20216;-79
2022/11/09 08:46:16;;;;;;;20.40;19.10;;;13.30;99.90;;;;;;10441968;28;20217;-79
2022/11/09 08:51:18;;;;;;;18.10;17.10;;;13.30;99.90;;;;;;10462393;28;20565;-79
2022/11/09 08:56:22;;;;;;;16.17;15.07;;;13.30;99.90;;;;;;10437837;28;20220;-79
2022/11/09 09:01:25;;;;;;;16.73;15.93;;;13.40;99.90;;;;;;10456827;28;20196;-79
2022/11/09 09:06:27;;;;;;;13.23;12.50;;;13.30;99.90;;;;;;10456084;28;20633;-80
2022/11/09 09:11:30;;;;;;;21.80;20.40;;;13.40;99.90;;;;;;10456977;28;20209;-80
2022/11/09 09:16:33;;;;;;;18.40;17.27;;;13.40;99.90;;;;;;10463603;28;20298;-80
2022/11/09 09:21:35;;;;;;;17.13;16.23;;;13.40;99.90;;;;;;10458833;28;20194;-79
2022/11/09 09:26:38;;;;;;;15.60;14.60;;;13.50;99.90;;;;;;10482043;28;20262;-79
2022/11/09 09:31:41;;;;;;;14.77;14.00;;;13.50;99.90;;;;;;10459885;28;20258;-78
2022/11/09 09:36:43;;;;;;;15.43;14.63;;;13.60;99.90;;;;;;10500998;28;20221;-79
2022/11/09 09:41:51;;;;;;;15.57;14.77;;;13.60;99.90;;;;;;10447398;28;20247;-79
2022/11/09 09:46:59;;;;;;;15.97;15.10;;;13.70;99.90;;;;;;10429387;28;20231;-80
2022/11/09 09:52:09;;;;;;;15.93;15.13;;;13.80;99.90;;;;;;10442533;28;20636;-79
2022/11/09 09:57:19;;;;;;;15.83;14.93;;;14.00;99.90;;;;;;10464087;28;20213;-79
2022/11/09 10:02:24;;;;;;;11.80;11.30;;;14.00;99.90;;;;;;10462099;28;20193;-79
2022/11/09 10:07:30;;;;;;;16.23;15.27;;;14.10;99.90;;;;;;10464386;28;20247;-79
2022/11/09 10:12:46;;;;;;;15.90;15.00;;;14.10;99.90;;;;;;10445513;28;20303;-79
2022/11/09 10:18:02;;;;;;;15.13;14.43;;;14.20;99.90;;;;;;10468110;28;20241;-79
2022/11/09 10:23:25;;;;;;;15.90;15.10;;;14.30;99.90;;;;;;10482829;28;20185;-79
2022/11/09 10:28:32;;;;;;;14.37;13.57;;;14.40;99.90;;;;;;10495826;28;20301;-79
2022/11/09 10:33:34;;;;;;;14.00;13.30;;;14.50;99.90;;;;;;10442302;28;20247;-79
2022/11/09 10:38:43;;;;;;;15.80;15.00;;;14.50;99.90;;;;;;10459739;28;20307;-79
2022/11/09 10:44:05;;;;;;;14.53;13.73;;;14.60;99.90;;;;;;10451538;28;20189;-79
2022/11/09 10:49:26;;;;;;;13.73;13.03;;;14.70;99.90;;;;;;10456266;28;20217;-79
2022/11/09 10:54:47;;;;;;;13.83;13.10;;;14.80;99.90;;;;;;10460643;28;20578;-79
2022/11/09 11:00:15;;;;;;;15.30;14.20;;;15.00;99.90;;;;;;10455376;28;20689;-79
2022/11/09 11:05:36;;;;;;;14.13;13.33;;;15.10;99.90;;;;;;10459867;28;20712;-79
2022/11/09 11:11:24;;;;;;;10.90;10.30;;;15.10;99.90;;;;;;10454293;28;20216;-80
2022/11/09 11:16:49;;;;;;;14.53;13.70;;;15.20;99.90;;;;;;10401763;28;20712;-79
2022/11/09 11:22:21;;;;;;;13.67;12.97;;;15.20;99.90;;;;;;10429413;28;20205;-78
2022/11/09 11:27:46;;;;;;;13.13;12.50;;;15.40;99.90;;;;;;10456355;28;20298;-79
2022/11/09 11:33:13;;;;;;;13.83;13.03;;;15.50;99.90;;;;;;10458395;28;20712;-79
2022/11/09 11:38:39;;;;;;;10.10;9.60;;;15.50;99.90;;;;;;10458100;28;20233;-79
2022/11/09 11:44:08;;;;;;;11.43;10.93;;;15.50;99.90;;;;;;10442203;28;20661;-79
2022/11/09 11:49:51;;;;;;;12.07;11.47;;;15.50;99.90;;;;;;10456948;28;20379;-80
2022/11/09 11:55:24;;;;;;;13.53;12.70;;;15.50;99.90;;;;;;10456424;28;20209;-79
2022/11/09 12:00:55;;;;;;;11.63;11.13;;;15.50;99.90;;;;;;10422506;28;20241;-79
2022/11/09 12:06:38;;;;;;;12.70;12.00;;;15.50;99.90;;;;;;10434191;28;20198;-79
2022/11/09 12:12:12;;;;;;;11.23;10.40;;;15.50;99.90;;;;;;10424294;28;20223;-79
2022/11/09 12:17:40;;;;;;;12.53;11.83;;;15.50;99.90;;;;;;10430172;28;20225;-79
2022/11/09 12:23:22;;;;;;;11.90;11.00;;;15.50;99.90;;;;;;10437760;28;20205;-80
2022/11/09 12:29:01;;;;;;;10.60;10.10;;;15.60;99.90;;;;;;10453169;28;20208;-79
2022/11/09 12:34:27;;;;;;;10.80;10.23;;;15.60;99.90;;;;;;10451295;28;20201;-79
2022/11/09 12:39:52;;;;;;;9.43;8.93;;;15.60;99.90;;;;;;10433674;28;20585;-79
2022/11/09 12:45:22;;;;;;;10.60;9.90;;;15.60;99.90;;;;;;10411691;28;20190;-80
2022/11/09 12:50:43;;;;;;;11.23;10.53;;;15.60;99.90;;;;;;10442613;28;20208;-79
2022/11/09 12:56:11;;;;;;;9.70;9.20;;;15.60;99.90;;;;;;10459506;28;20704;-79
2022/11/09 13:01:47;;;;;;;8.90;8.50;;;15.70;99.90;;;;;;10459378;28;20275;-79
2022/11/09 13:07:45;;;;;;;10.10;9.40;;;15.70;99.90;;;;;;10434115;28;20259;-79
2022/11/09 13:13:22;;;;;;;8.20;7.80;;;15.70;99.90;;;;;;10444867;28;20702;-79
2022/11/09 13:18:51;;;;;;;4.20;3.90;;;15.80;99.90;;;;;;10459688;23;20595;-82
2022/11/09 13:24:50;;;;;;;7.97;7.53;;;15.70;99.90;;;;;;10455243;28;20284;-84
2022/11/09 13:30:38;;;;;;;6.03;5.60;;;15.70;99.90;;;;;;10358078;28;20222;-82
2022/11/09 13:36:17;;;;;;;7.10;6.80;;;15.70;99.90;;;;;;10380148;28;20198;-82
2022/11/09 13:41:43;;;;;;;6.37;6.07;;;15.70;99.90;;;;;;10443148;28;20196;-82
2022/11/09 13:47:05;;;;;;;7.60;7.20;;;15.60;99.90;;;;;;10442867;28;20712;-83
2022/11/09 13:52:49;;;;;;;9.50;8.90;;;15.60;99.90;;;;;;10455079;28;20218;-82
2022/11/09 13:58:24;;;;;;;7.30;6.90;;;15.60;99.90;;;;;;10439846;28;20220;-82
2022/11/09 14:03:51;;;;;;;6.27;5.87;;;15.60;99.90;;;;;;10444589;28;20569;-84
2022/11/09 14:09:17;;;;;;;5.93;5.63;;;15.60;99.90;;;;;;10445796;28;20346;-83
2022/11/09 14:15:03;;;;;;;6.90;6.50;;;15.50;99.90;;;;;;10440989;28;20623;-82
2022/11/09 14:20:34;;;;;;;8.60;8.00;;;15.50;99.90;;;;;;10460609;28;20231;-82
2022/11/09 14:25:55;;;;;;;8.00;7.60;;;15.50;99.90;;;;;;10436908;28;20196;-80
2022/11/09 14:31:24;;;;;;;8.00;7.50;;;15.40;99.90;;;;;;10455756;28;20217;-82
2022/11/09 14:36:46;;;;;;;6.77;6.20;;;15.40;99.90;;;;;;10422480;28;20567;-82
2022/11/09 14:42:07;;;;;;;9.77;9.07;;;15.40;99.90;;;;;;10438305;28;20192;-81
2022/11/09 14:47:31;;;;;;;7.90;7.47;;;15.40;99.90;;;;;;10421075;28;20228;-81
2022/11/09 14:52:55;;;;;;;8.40;7.90;;;15.40;99.90;;;;;;10454393;28;20222;-83
2022/11/09 14:58:17;;;;;;;13.23;10.27;;;15.30;99.90;;;;;;10425987;28;20217;-83
2022/11/09 15:03:37;;;;;;;12.47;11.33;;;15.30;99.90;;;;;;10448821;28;20224;-83
2022/11/09 15:09:04;;;;;;;8.73;8.13;;;15.20;99.90;;;;;;10428998;28;20227;-83
2022/11/09 15:14:28;;;;;;;10.00;9.40;;;15.20;99.90;;;;;;10443214;28;20786;-83
2022/11/09 15:19:51;;;;;;;7.80;7.30;;;15.20;99.90;;;;;;10434031;28;20221;-83
2022/11/09 15:25:35;;;;;;;9.00;8.50;;;15.10;99.90;;;;;;10448370;28;20214;-82
2022/11/09 15:31:14;;;;;;;8.80;8.20;;;15.10;99.90;;;;;;10413171;28;20681;-82
2022/11/09 15:36:36;;;;;;;6.70;6.40;;;15.00;99.90;;;;;;10396555;28;20289;-83
2022/11/09 15:41:58;;;;;;;7.03;6.70;;;14.90;99.90;;;;;;10430554;28;20744;-83
2022/11/09 15:47:22;;;;;;;7.23;6.87;;;14.90;99.90;;;;;;10395244;28;20211;-83
2022/11/09 15:52:43;;;;;;;7.00;6.60;;;14.90;99.90;;;;;;10379370;28;20229;-83
2022/11/09 15:58:05;;;;;;;11.10;10.30;;;14.90;99.90;;;;;;10404858;28;20214;-82
2022/11/09 16:03:26;;;;;;;10.70;9.90;;;14.90;99.90;;;;;;10416260;28;20209;-81
2022/11/09 16:08:48;;;;;;;7.57;7.03;;;14.90;99.90;;;;;;10385942;28;20214;-82
2022/11/09 16:14:09;;;;;;;9.30;8.60;;;14.90;99.90;;;;;;10379436;28;20300;-81
2022/11/09 16:19:30;;;;;;;6.57;6.07;;;14.90;99.90;;;;;;10378319;28;20745;-83
2022/11/09 16:24:51;;;;;;;11.27;10.57;;;14.90;99.90;;;;;;10400085;28;20212;-82
2022/11/09 16:30:14;;;;;;;18.40;17.20;;;14.90;99.90;;;;;;10390122;28;20705;-83
2022/11/09 16:35:35;;;;;;;19.33;17.73;;;14.90;99.90;;;;;;10381457;28;20689;-83
2022/11/09 16:40:56;;;;;;;12.67;11.87;;;14.80;99.90;;;;;;10397583;28;20223;-83
2022/11/09 16:46:23;;;;;;;13.23;12.23;;;14.90;99.90;;;;;;10412398;28;20201;-83
2022/11/09 16:51:44;;;;;;;11.80;10.90;;;14.80;99.90;;;;;;10422061;28;20210;-83
2022/11/09 16:57:05;;;;;;;10.37;9.77;;;14.80;99.90;;;;;;10401391;28;20253;-83
2022/11/09 17:02:27;;;;;;;10.13;9.33;;;14.80;99.90;;;;;;10424394;28;20211;-80
2022/11/09 17:07:48;;;;;;;9.47;8.80;;;14.70;99.90;;;;;;10421722;28;20218;-80
2022/11/09 17:13:09;;;;;;;13.43;12.03;;;14.70;99.90;;;;;;10408828;28;20257;-84
2022/11/09 17:18:31;;;;;;;9.70;8.93;;;14.70;99.90;;;;;;10396224;28;20256;-79
2022/11/09 17:23:52;;;;;;;11.73;10.70;;;14.70;99.90;;;;;;10425985;28;20194;-82
2022/11/09 17:29:13;;;;;;;9.23;8.70;;;14.70;99.90;;;;;;10398124;28;20241;-80
2022/11/09 17:34:35;;;;;;;8.90;8.40;;;14.60;99.90;;;;;;10398329;28;20218;-80
2022/11/09 17:39:56;;;;;;;9.23;8.73;;;14.60;99.90;;;;;;10399988;28;20217;-81
2022/11/09 17:45:17;;;;;;;8.53;8.03;;;14.50;99.90;;;;;;10408117;28;20209;-81
2022/11/09 17:50:39;;;;;;;9.30;8.70;;;14.40;99.90;;;;;;10398247;28;20638;-81
2022/11/09 17:56:00;;;;;;;9.00;8.40;;;14.40;99.90;;;;;;10413566;28;20192;-83
2022/11/09 18:01:21;;;;;;;7.90;7.40;;;14.40;99.90;;;;;;10413445;28;20214;-81
2022/11/09 18:06:43;;;;;;;8.77;8.17;;;14.40;99.90;;;;;;10395330;28;20190;-82
2022/11/09 18:12:05;;;;;;;8.60;7.93;;;14.40;99.90;;;;;;10391915;28;20213;-85
2022/11/09 18:17:26;;;;;;;10.73;9.83;;;14.40;99.90;;;;;;10394011;28;20348;-81
2022/11/09 18:22:50;;;;;;;11.17;10.57;;;14.40;99.90;;;;;;10403498;28;20194;-83
2022/11/09 18:28:12;;;;;;;15.90;14.67;;;14.40;99.90;;;;;;10390816;28;20398;-83
2022/11/09 18:33:34;;;;;;;20.87;18.97;;;14.40;99.90;;;;;;10383234;28;20224;-81
2022/11/09 18:38:56;;;;;;;16.87;15.47;;;14.30;99.90;;;;;;10410744;28;20218;-84
2022/11/09 18:44:17;;;;;;;12.30;11.50;;;14.30;99.90;;;;;;10419558;28;20194;-84
2022/11/09 18:49:37;;;;;;;9.10;8.40;;;14.30;99.90;;;;;;10425848;28;20255;-81
2022/11/09 18:54:59;;;;;;;10.60;10.00;;;14.30;99.90;;;;;;10450602;28;20217;-81
2022/11/09 19:00:20;;;;;;;9.60;9.10;;;14.30;99.90;;;;;;10425901;28;20666;-82
2022/11/09 19:05:42;;;;;;;10.60;9.90;;;14.30;99.90;;;;;;10415312;28;20220;-83
2022/11/09 19:11:07;;;;;;;8.83;8.33;;;14.30;99.90;;;;;;10455763;28;20311;-82
2022/11/09 19:16:29;;;;;;;7.60;7.00;;;14.30;99.90;;;;;;10431683;28;20194;-85
2022/11/09 19:21:51;;;;;;;10.33;9.80;;;14.30;99.90;;;;;;10434665;23;20233;-83
2022/11/09 19:27:13;;;;;;;10.00;9.50;;;14.30;99.90;;;;;;10421386;28;20200;-83
2022/11/09 19:32:33;;;;;;;9.60;9.10;;;14.30;99.90;;;;;;10416603;28;20578;-83
2022/11/09 19:37:54;;;;;;;10.20;9.40;;;14.30;99.90;;;;;;10416916;28;20589;-82
2022/11/09 19:43:16;;;;;;;8.80;8.40;;;14.30;99.90;;;;;;10418038;28;20257;-80
2022/11/09 19:48:36;;;;;;;8.90;8.20;;;14.30;99.90;;;;;;10413679;28;20643;-83
2022/11/09 19:53:59;;;;;;;8.30;7.77;;;14.30;99.90;;;;;;10418338;28;20217;-84
2022/11/09 19:59:22;;;;;;;8.77;8.27;;;14.20;99.90;;;;;;10418106;28;20205;-83
2022/11/09 20:04:43;;;;;;;9.07;8.67;;;14.20;99.90;;;;;;10401752;28;20201;-81
2022/11/09 20:10:04;;;;;;;7.77;7.47;;;14.10;99.90;;;;;;10417264;28;20241;-80
2022/11/09 20:15:26;;;;;;;8.20;7.70;;;14.10;99.90;;;;;;10415299;28;20213;-80
2022/11/09 20:20:47;;;;;;;38.43;34.37;;;14.00;99.90;;;;;;10420456;28;20233;-79
2022/11/09 20:26:10;;;;;;;8.33;7.73;;;13.90;99.90;;;;;;10419782;28;20255;-81
2022/11/09 20:31:32;;;;;;;9.00;8.40;;;13.90;99.90;;;;;;10427906;28;20213;-79
2022/11/09 20:36:52;;;;;;;8.30;7.80;;;13.80;99.90;;;;;;10414158;28;20197;-79
2022/11/09 20:42:13;;;;;;;10.90;10.30;;;13.70;99.90;;;;;;10417953;28;20213;-80
2022/11/09 20:47:35;;;;;;;14.03;12.93;;;13.80;99.90;;;;;;10416689;28;20629;-79
2022/11/09 20:52:55;;;;;;;12.90;12.03;;;13.80;99.90;;;;;;10417500;28;20240;-79
2022/11/09 20:58:16;;;;;;;11.07;10.47;;;13.80;99.90;;;;;;10374560;28;20724;-80
2022/11/09 21:03:38;;;;;;;11.80;11.10;;;13.80;99.90;;;;;;10416230;28;20182;-79
2022/11/09 21:09:00;;;;;;;12.33;11.63;;;13.80;99.90;;;;;;10416777;28;20213;-79
2022/11/09 21:14:20;;;;;;;12.10;11.40;;;13.80;99.90;;;;;;10413563;28;20281;-78
2022/11/09 21:19:42;;;;;;;12.50;11.80;;;13.80;99.90;;;;;;10410811;28;20217;-80
2022/11/09 21:30:42;;;;;;;12.37;11.50;;;13.80;99.90;;;;;;10419547;28;20255;-79
2022/11/09 21:36:08;;;;;;;11.30;10.50;;;13.80;99.90;;;;;;10419734;28;20217;-80
2022/11/09 21:41:37;;;;;;;12.23;11.40;;;13.80;99.90;;;;;;10419924;28;20210;-78
2022/11/09 21:46:59;;;;;;;12.60;11.90;;;13.90;99.90;;;;;;10419529;28;20198;-80
2022/11/09 21:52:21;;;;;;;11.40;10.90;;;13.90;99.90;;;;;;10424149;28;20272;-77
2022/11/09 21:57:42;;;;;;;10.73;10.13;;;13.90;99.90;;;;;;10405475;28;20650;-78
2022/11/09 22:03:03;;;;;;;11.20;10.50;;;13.90;99.90;;;;;;10413749;28;20196;-80
2022/11/09 22:08:25;;;;;;;10.23;9.73;;;13.80;99.90;;;;;;10422580;28;20711;-80
2022/11/09 22:25:05;;;;;;;13.00;12.30;;;13.80;99.90;;;;;;10383087;28;20248;-80
2022/11/09 22:30:26;;;;;;;11.60;11.00;;;13.80;99.90;;;;;;10421659;28;20595;-80
2022/11/09 22:35:53;;;;;;;10.63;10.13;;;13.80;99.90;;;;;;10424112;28;20427;-80
2022/11/09 22:41:16;;;;;;;10.17;9.67;;;13.80;99.90;;;;;;10414645;28;20312;-80
2022/11/09 22:46:37;;;;;;;10.93;10.33;;;13.90;99.90;;;;;;10420515;28;20549;-80
2022/11/09 22:51:57;;;;;;;11.60;10.73;;;13.80;99.90;;;;;;10419858;28;20292;-80
2022/11/09 22:57:19;;;;;;;10.20;9.60;;;13.90;99.90;;;;;;10420215;28;20205;-80
2022/11/09 23:02:40;;;;;;;9.10;8.50;;;13.90;99.90;;;;;;10420315;28;20269;-80
2022/11/09 23:08:00;;;;;;;10.17;9.67;;;13.90;99.90;;;;;;10418274;28;20213;-80
2022/11/09 23:13:22;;;;;;;9.90;9.30;;;13.90;99.90;;;;;;10419765;28;20216;-80
2022/11/09 23:18:55;;;;;;;9.70;9.10;;;13.90;99.90;;;;;;10403841;28;20235;-80
2022/11/09 23:25:52;;;;;;;9.97;9.40;;;13.90;99.90;;;;;;10422631;28;20194;-80
2022/11/09 23:29:58;;;;;;;8.60;8.30;;;13.80;99.90;;;;;;10418726;28;20214;-80
2022/11/09 23:35:19;;;;;;;9.80;9.00;;;13.80;99.90;;;;;;10412745;28;20236;-80
2022/11/09 23:40:39;;;;;;;8.90;8.30;;;13.80;99.90;;;;;;10418933;28;20221;-80
2022/11/09 23:46:03;;;;;;;9.53;9.13;;;13.80;99.90;;;;;;10377697;28;20190;-79
2022/11/09 23:51:24;;;;;;;9.33;8.83;;;13.80;99.90;;;;;;10415254;28;20616;-82
2022/11/09 23:56:44;;;;;;;9.70;8.93;;;13.80;99.90;;;;;;10417451;28;20260;-80
